sensor_id;sensor_type;location;lat;lon;timestamp;P1;durP1;ratioP1;P2;durP2;ratioP2
52858;SDS011;38721;53.098;6.596;2022-11-11T00:00:38;16.85;;;8.27;;
52858;SDS011;38721;53.098;6.596;2022-11-11T00:03:04;16.65;;;8.48;;
52858;SDS011;38721;53.098;6.596;2022-11-11T00:05:31;17.67;;;8.70;;
52858;SDS011;38721;53.098;6.596;2022-11-11T00:07:58;18.45;;;9.13;;
52858;SDS011;38721;53.098;6.596;2022-11-11T00:10:24;18.75;;;9.32;;
52858;SDS011;38721;53.098;6.596;2022-11-11T00:12:51;15.95;;;9.77;;
52858;SDS011;38721;53.098;6.596;2022-11-11T00:15:17;13.88;;;8.52;;
52858;SDS011;38721;53.098;6.596;2022-11-11T00:17:42;14.35;;;8.05;;
52858;SDS011;38721;53.098;6.596;2022-11-11T00:20:26;13.35;;;8.32;;
52858;SDS011;38721;53.098;6.596;2022-11-11T00:23:29;20.35;;;9.45;;
52858;SDS011;38721;53.098;6.596;2022-11-11T00:26:16;20.40;;;8.23;;
52858;SDS011;38721;53.098;6.596;2022-11-11T00:28:41;15.95;;;9.52;;
52858;SDS011;38721;53.098;6.596;2022-11-11T00:31:17;15.27;;;9.07;;
52858;SDS011;38721;53.098;6.596;2022-11-11T00:33:43;18.58;;;8.77;;
52858;SDS011;38721;53.098;6.596;2022-11-11T00:36:08;20.08;;;9.70;;
52858;SDS011;38721;53.098;6.596;2022-11-11T00:38:34;14.52;;;9.05;;
52858;SDS011;38721;53.098;6.596;2022-11-11T00:41:19;15.93;;;8.70;;
52858;SDS011;38721;53.098;6.596;2022-11-11T00:43:47;16.92;;;9.57;;
52858;SDS011;38721;53.098;6.596;2022-11-11T00:46:16;16.63;;;9.05;;
52858;SDS011;38721;53.098;6.596;2022-11-11T00:49:00;16.38;;;9.23;;
52858;SDS011;38721;53.098;6.596;2022-11-11T00:51:44;15.30;;;9.27;;
52858;SDS011;38721;53.098;6.596;2022-11-11T00:54:10;18.70;;;8.98;;
52858;SDS011;38721;53.098;6.596;2022-11-11T00:56:37;15.52;;;9.80;;
52858;SDS011;38721;53.098;6.596;2022-11-11T00:59:06;16.67;;;9.10;;
52858;SDS011;38721;53.098;6.596;2022-11-11T01:01:33;12.50;;;9.05;;
52858;SDS011;38721;53.098;6.596;2022-11-11T01:04:00;19.05;;;9.55;;
52858;SDS011;38721;53.098;6.596;2022-11-11T01:06:26;14.77;;;9.02;;
52858;SDS011;38721;53.098;6.596;2022-11-11T01:08:52;14.30;;;9.30;;
52858;SDS011;38721;53.098;6.596;2022-11-11T01:11:19;19.23;;;9.20;;
52858;SDS011;38721;53.098;6.596;2022-11-11T01:13:46;18.70;;;10.27;;
52858;SDS011;38721;53.098;6.596;2022-11-11T01:16:23;17.10;;;9.82;;
52858;SDS011;38721;53.098;6.596;2022-11-11T01:18:51;15.23;;;9.35;;
52858;SDS011;38721;53.098;6.596;2022-11-11T01:21:19;15.70;;;9.60;;
52858;SDS011;38721;53.098;6.596;2022-11-11T01:23:46;17.70;;;9.45;;
52858;SDS011;38721;53.098;6.596;2022-11-11T01:26:14;18.05;;;9.63;;
52858;SDS011;38721;53.098;6.596;2022-11-11T01:28:59;17.90;;;9.93;;
52858;SDS011;38721;53.098;6.596;2022-11-11T01:31:25;17.83;;;10.65;;
52858;SDS011;38721;53.098;6.596;2022-11-11T01:33:51;20.05;;;10.02;;
52858;SDS011;38721;53.098;6.596;2022-11-11T01:36:18;16.60;;;9.38;;
52858;SDS011;38721;53.098;6.596;2022-11-11T01:38:51;13.45;;;9.27;;
52858;SDS011;38721;53.098;6.596;2022-11-11T01:41:20;17.15;;;9.65;;
52858;SDS011;38721;53.098;6.596;2022-11-11T01:43:57;16.25;;;9.38;;
52858;SDS011;38721;53.098;6.596;2022-11-11T01:46:48;17.63;;;9.32;;
52858;SDS011;38721;53.098;6.596;2022-11-11T01:54:40;21.42;;;9.88;;
52858;SDS011;38721;53.098;6.596;2022-11-11T01:57:18;19.25;;;9.25;;
52858;SDS011;38721;53.098;6.596;2022-11-11T01:59:52;13.27;;;9.15;;
52858;SDS011;38721;53.098;6.596;2022-11-11T02:02:58;18.10;;;9.23;;
52858;SDS011;38721;53.098;6.596;2022-11-11T02:05:19;17.88;;;10.45;;
52858;SDS011;38721;53.098;6.596;2022-11-11T02:08:09;15.25;;;10.68;;
52858;SDS011;38721;53.098;6.596;2022-11-11T02:10:40;17.10;;;9.85;;
52858;SDS011;38721;53.098;6.596;2022-11-11T02:13:11;15.93;;;9.93;;
52858;SDS011;38721;53.098;6.596;2022-11-11T02:15:57;16.50;;;10.05;;
52858;SDS011;38721;53.098;6.596;2022-11-11T02:18:23;14.55;;;9.90;;
52858;SDS011;38721;53.098;6.596;2022-11-11T02:20:50;17.17;;;10.27;;
52858;SDS011;38721;53.098;6.596;2022-11-11T02:23:17;16.60;;;10.60;;
52858;SDS011;38721;53.098;6.596;2022-11-11T02:26:06;17.70;;;11.05;;
52858;SDS011;38721;53.098;6.596;2022-11-11T02:28:34;17.25;;;11.18;;
52858;SDS011;38721;53.098;6.596;2022-11-11T02:31:02;17.88;;;12.23;;
52858;SDS011;38721;53.098;6.596;2022-11-11T02:33:27;27.45;;;12.77;;
52858;SDS011;38721;53.098;6.596;2022-11-11T02:35:54;19.02;;;12.50;;
52858;SDS011;38721;53.098;6.596;2022-11-11T02:38:25;21.75;;;13.52;;
52858;SDS011;38721;53.098;6.596;2022-11-11T02:40:52;18.92;;;12.93;;
52858;SDS011;38721;53.098;6.596;2022-11-11T02:43:36;24.20;;;13.63;;
52858;SDS011;38721;53.098;6.596;2022-11-11T02:46:03;21.40;;;14.77;;
52858;SDS011;38721;53.098;6.596;2022-11-11T02:48:30;21.00;;;14.43;;
52858;SDS011;38721;53.098;6.596;2022-11-11T02:50:55;22.83;;;14.88;;
52858;SDS011;38721;53.098;6.596;2022-11-11T02:53:21;24.52;;;15.18;;
52858;SDS011;38721;53.098;6.596;2022-11-11T02:55:47;22.60;;;15.50;;
52858;SDS011;38721;53.098;6.596;2022-11-11T02:58:16;29.00;;;16.35;;
52858;SDS011;38721;53.098;6.596;2022-11-11T03:00:42;24.58;;;16.27;;
52858;SDS011;38721;53.098;6.596;2022-11-11T03:03:08;27.42;;;17.17;;
52858;SDS011;38721;53.098;6.596;2022-11-11T03:05:34;24.33;;;16.75;;
52858;SDS011;38721;53.098;6.596;2022-11-11T03:08:00;24.75;;;17.70;;
52858;SDS011;38721;53.098;6.596;2022-11-11T03:10:26;25.83;;;18.35;;
52858;SDS011;38721;53.098;6.596;2022-11-11T03:12:51;28.25;;;18.10;;
52858;SDS011;38721;53.098;6.596;2022-11-11T03:15:20;27.30;;;18.20;;
52858;SDS011;38721;53.098;6.596;2022-11-11T03:17:46;28.77;;;19.38;;
52858;SDS011;38721;53.098;6.596;2022-11-11T03:20:12;27.70;;;18.65;;
52858;SDS011;38721;53.098;6.596;2022-11-11T03:23:02;27.85;;;19.80;;
52858;SDS011;38721;53.098;6.596;2022-11-11T03:25:30;24.58;;;19.65;;
52858;SDS011;38721;53.098;6.596;2022-11-11T03:30:31;30.30;;;19.10;;
52858;SDS011;38721;53.098;6.596;2022-11-11T03:33:00;27.98;;;20.10;;
52858;SDS011;38721;53.098;6.596;2022-11-11T03:35:26;27.75;;;19.52;;
52858;SDS011;38721;53.098;6.596;2022-11-11T03:37:52;28.67;;;20.17;;
52858;SDS011;38721;53.098;6.596;2022-11-11T03:40:36;31.13;;;20.77;;
52858;SDS011;38721;53.098;6.596;2022-11-11T03:43:02;28.83;;;20.83;;
52858;SDS011;38721;53.098;6.596;2022-11-11T03:45:28;29.52;;;21.67;;
52858;SDS011;38721;53.098;6.596;2022-11-11T03:47:53;27.42;;;20.77;;
52858;SDS011;38721;53.098;6.596;2022-11-11T03:50:25;29.83;;;21.95;;
52858;SDS011;38721;53.098;6.596;2022-11-11T03:52:51;30.45;;;21.75;;
52858;SDS011;38721;53.098;6.596;2022-11-11T03:55:16;34.45;;;23.15;;
52858;SDS011;38721;53.098;6.596;2022-11-11T03:57:43;38.42;;;21.98;;
52858;SDS011;38721;53.098;6.596;2022-11-11T04:00:10;29.73;;;21.38;;
52858;SDS011;38721;53.098;6.596;2022-11-11T04:02:47;32.58;;;22.92;;
52858;SDS011;38721;53.098;6.596;2022-11-11T04:05:31;33.72;;;22.35;;
52858;SDS011;38721;53.098;6.596;2022-11-11T04:08:16;30.40;;;21.40;;
52858;SDS011;38721;53.098;6.596;2022-11-11T04:11:16;30.65;;;21.98;;
52858;SDS011;38721;53.098;6.596;2022-11-11T04:13:51;31.95;;;21.20;;
52858;SDS011;38721;53.098;6.596;2022-11-11T04:16:38;28.13;;;21.63;;
52858;SDS011;38721;53.098;6.596;2022-11-11T04:19:03;33.42;;;21.88;;
52858;SDS011;38721;53.098;6.596;2022-11-11T04:21:47;34.25;;;22.30;;
52858;SDS011;38721;53.098;6.596;2022-11-11T04:24:17;33.00;;;22.00;;
52858;SDS011;38721;53.098;6.596;2022-11-11T04:27:10;32.85;;;22.15;;
52858;SDS011;38721;53.098;6.596;2022-11-11T04:29:37;30.08;;;21.85;;
52858;SDS011;38721;53.098;6.596;2022-11-11T04:32:06;34.58;;;23.08;;
52858;SDS011;38721;53.098;6.596;2022-11-11T04:34:58;34.25;;;21.70;;
52858;SDS011;38721;53.098;6.596;2022-11-11T04:37:25;31.70;;;21.63;;
52858;SDS011;38721;53.098;6.596;2022-11-11T04:39:52;33.13;;;22.00;;
52858;SDS011;38721;53.098;6.596;2022-11-11T04:42:37;35.65;;;22.83;;
52858;SDS011;38721;53.098;6.596;2022-11-11T04:45:03;35.30;;;23.15;;
52858;SDS011;38721;53.098;6.596;2022-11-11T04:50:17;32.15;;;22.45;;
52858;SDS011;38721;53.098;6.596;2022-11-11T04:52:43;35.40;;;22.85;;
52858;SDS011;38721;53.098;6.596;2022-11-11T04:55:08;34.15;;;23.63;;
52858;SDS011;38721;53.098;6.596;2022-11-11T04:57:52;37.90;;;22.90;;
52858;SDS011;38721;53.098;6.596;2022-11-11T05:00:18;31.20;;;23.17;;
52858;SDS011;38721;53.098;6.596;2022-11-11T05:02:47;36.40;;;22.58;;
52858;SDS011;38721;53.098;6.596;2022-11-11T05:05:31;35.50;;;22.33;;
52858;SDS011;38721;53.098;6.596;2022-11-11T05:08:16;32.17;;;22.58;;
52858;SDS011;38721;53.098;6.596;2022-11-11T05:11:00;34.35;;;23.23;;
52858;SDS011;38721;53.098;6.596;2022-11-11T05:13:26;38.42;;;23.15;;
52858;SDS011;38721;53.098;6.596;2022-11-11T05:16:44;32.08;;;22.17;;
52858;SDS011;38721;53.098;6.596;2022-11-11T05:19:23;35.15;;;23.23;;
52858;SDS011;38721;53.098;6.596;2022-11-11T05:24:57;32.33;;;22.33;;
52858;SDS011;38721;53.098;6.596;2022-11-11T05:27:42;34.83;;;22.88;;
52858;SDS011;38721;53.098;6.596;2022-11-11T05:30:08;37.08;;;21.88;;
52858;SDS011;38721;53.098;6.596;2022-11-11T05:32:36;33.88;;;22.55;;
52858;SDS011;38721;53.098;6.596;2022-11-11T05:35:03;34.15;;;21.17;;
52858;SDS011;38721;53.098;6.596;2022-11-11T05:37:29;37.67;;;22.60;;
52858;SDS011;38721;53.098;6.596;2022-11-11T05:39:55;35.85;;;23.60;;
52858;SDS011;38721;53.098;6.596;2022-11-11T05:42:20;33.50;;;22.00;;
52858;SDS011;38721;53.098;6.596;2022-11-11T05:44:46;36.30;;;22.23;;
52858;SDS011;38721;53.098;6.596;2022-11-11T05:47:12;39.40;;;23.40;;
52858;SDS011;38721;53.098;6.596;2022-11-11T05:49:37;32.03;;;22.23;;
52858;SDS011;38721;53.098;6.596;2022-11-11T05:52:03;32.75;;;21.38;;
52858;SDS011;38721;53.098;6.596;2022-11-11T05:54:29;36.53;;;21.92;;
52858;SDS011;38721;53.098;6.596;2022-11-11T05:56:55;33.63;;;22.10;;
52858;SDS011;38721;53.098;6.596;2022-11-11T05:59:21;35.05;;;22.38;;
52858;SDS011;38721;53.098;6.596;2022-11-11T06:01:46;34.67;;;22.27;;
52858;SDS011;38721;53.098;6.596;2022-11-11T06:04:12;36.30;;;23.00;;
52858;SDS011;38721;53.098;6.596;2022-11-11T06:06:38;32.45;;;21.67;;
52858;SDS011;38721;53.098;6.596;2022-11-11T06:09:03;33.65;;;21.35;;
52858;SDS011;38721;53.098;6.596;2022-11-11T06:11:29;35.58;;;21.85;;
52858;SDS011;38721;53.098;6.596;2022-11-11T06:13:55;32.28;;;21.13;;
52858;SDS011;38721;53.098;6.596;2022-11-11T06:16:24;33.53;;;23.02;;
52858;SDS011;38721;53.098;6.596;2022-11-11T06:18:49;33.20;;;20.65;;
52858;SDS011;38721;53.098;6.596;2022-11-11T06:21:16;32.78;;;22.65;;
52858;SDS011;38721;53.098;6.596;2022-11-11T06:23:42;30.35;;;21.10;;
52858;SDS011;38721;53.098;6.596;2022-11-11T06:26:08;34.90;;;21.67;;
52858;SDS011;38721;53.098;6.596;2022-11-11T06:31:05;30.88;;;21.45;;
52858;SDS011;38721;53.098;6.596;2022-11-11T06:33:35;33.53;;;21.10;;
52858;SDS011;38721;53.098;6.596;2022-11-11T06:36:02;34.53;;;21.33;;
52858;SDS011;38721;53.098;6.596;2022-11-11T06:38:29;35.30;;;20.50;;
52858;SDS011;38721;53.098;6.596;2022-11-11T06:40:55;32.13;;;20.73;;
52858;SDS011;38721;53.098;6.596;2022-11-11T06:43:21;34.53;;;22.80;;
52858;SDS011;38721;53.098;6.596;2022-11-11T06:45:53;38.92;;;22.33;;
52858;SDS011;38721;53.098;6.596;2022-11-11T06:48:24;32.28;;;21.38;;
52858;SDS011;38721;53.098;6.596;2022-11-11T06:50:51;35.88;;;22.02;;
52858;SDS011;38721;53.098;6.596;2022-11-11T06:53:17;32.33;;;21.55;;
52858;SDS011;38721;53.098;6.596;2022-11-11T06:55:44;34.80;;;21.67;;
52858;SDS011;38721;53.098;6.596;2022-11-11T06:58:11;32.08;;;20.90;;
52858;SDS011;38721;53.098;6.596;2022-11-11T07:00:40;35.38;;;21.92;;
52858;SDS011;38721;53.098;6.596;2022-11-11T07:03:07;31.50;;;21.52;;
52858;SDS011;38721;53.098;6.596;2022-11-11T07:05:35;34.10;;;21.05;;
52858;SDS011;38721;53.098;6.596;2022-11-11T07:08:02;35.92;;;21.45;;
52858;SDS011;38721;53.098;6.596;2022-11-11T07:10:29;31.88;;;20.73;;
52858;SDS011;38721;53.098;6.596;2022-11-11T07:12:56;29.73;;;20.45;;
52858;SDS011;38721;53.098;6.596;2022-11-11T07:15:21;33.65;;;20.60;;
52858;SDS011;38721;53.098;6.596;2022-11-11T07:17:47;37.22;;;22.15;;
52858;SDS011;38721;53.098;6.596;2022-11-11T07:20:13;29.98;;;19.25;;
52858;SDS011;38721;53.098;6.596;2022-11-11T07:22:39;34.08;;;20.85;;
52858;SDS011;38721;53.098;6.596;2022-11-11T07:25:04;32.63;;;20.75;;
52858;SDS011;38721;53.098;6.596;2022-11-11T07:27:37;29.92;;;19.80;;
52858;SDS011;38721;53.098;6.596;2022-11-11T07:32:31;29.52;;;18.80;;
52858;SDS011;38721;53.098;6.596;2022-11-11T07:34:57;30.98;;;20.55;;
52858;SDS011;38721;53.098;6.596;2022-11-11T07:37:23;33.25;;;19.67;;
52858;SDS011;38721;53.098;6.596;2022-11-11T07:39:52;34.72;;;19.73;;
52858;SDS011;38721;53.098;6.596;2022-11-11T07:42:18;31.15;;;20.27;;
52858;SDS011;38721;53.098;6.596;2022-11-11T07:44:44;29.35;;;19.67;;
52858;SDS011;38721;53.098;6.596;2022-11-11T07:47:10;31.30;;;19.92;;
52858;SDS011;38721;53.098;6.596;2022-11-11T07:49:36;28.73;;;20.55;;
52858;SDS011;38721;53.098;6.596;2022-11-11T07:52:02;33.20;;;19.90;;
52858;SDS011;38721;53.098;6.596;2022-11-11T07:54:27;35.17;;;20.00;;
52858;SDS011;38721;53.098;6.596;2022-11-11T07:56:54;28.15;;;19.20;;
52858;SDS011;38721;53.098;6.596;2022-11-11T07:59:19;31.00;;;19.75;;
52858;SDS011;38721;53.098;6.596;2022-11-11T08:01:45;29.80;;;19.85;;
52858;SDS011;38721;53.098;6.596;2022-11-11T08:04:10;32.53;;;19.25;;
52858;SDS011;38721;53.098;6.596;2022-11-11T08:06:36;29.98;;;20.00;;
52858;SDS011;38721;53.098;6.596;2022-11-11T08:09:02;28.33;;;18.13;;
52858;SDS011;38721;53.098;6.596;2022-11-11T08:11:28;26.70;;;18.70;;
52858;SDS011;38721;53.098;6.596;2022-11-11T08:14:12;28.13;;;18.92;;
52858;SDS011;38721;53.098;6.596;2022-11-11T08:16:40;31.60;;;18.88;;
52858;SDS011;38721;53.098;6.596;2022-11-11T08:19:06;27.23;;;17.60;;
52858;SDS011;38721;53.098;6.596;2022-11-11T08:21:31;27.77;;;18.48;;
52858;SDS011;38721;53.098;6.596;2022-11-11T08:23:57;27.38;;;17.70;;
52858;SDS011;38721;53.098;6.596;2022-11-11T08:26:23;26.98;;;17.92;;
52858;SDS011;38721;53.098;6.596;2022-11-11T08:28:51;32.22;;;18.77;;
52858;SDS011;38721;53.098;6.596;2022-11-11T08:31:20;26.77;;;17.52;;
52858;SDS011;38721;53.098;6.596;2022-11-11T08:33:45;25.50;;;17.30;;
52858;SDS011;38721;53.098;6.596;2022-11-11T08:36:11;27.08;;;17.95;;
52858;SDS011;38721;53.098;6.596;2022-11-11T08:38:37;25.02;;;17.35;;
52858;SDS011;38721;53.098;6.596;2022-11-11T08:41:04;29.77;;;18.55;;
52858;SDS011;38721;53.098;6.596;2022-11-11T08:43:31;29.45;;;17.50;;
52858;SDS011;38721;53.098;6.596;2022-11-11T08:45:58;29.05;;;17.13;;
52858;SDS011;38721;53.098;6.596;2022-11-11T08:48:24;29.30;;;16.50;;
52858;SDS011;38721;53.098;6.596;2022-11-11T08:50:50;28.90;;;16.30;;
52858;SDS011;38721;53.098;6.596;2022-11-11T08:53:17;27.08;;;16.35;;
52858;SDS011;38721;53.098;6.596;2022-11-11T08:55:44;24.73;;;17.35;;
52858;SDS011;38721;53.098;6.596;2022-11-11T08:58:10;30.13;;;17.60;;
52858;SDS011;38721;53.098;6.596;2022-11-11T09:00:36;29.33;;;17.20;;
52858;SDS011;38721;53.098;6.596;2022-11-11T09:03:03;24.98;;;17.25;;
52858;SDS011;38721;53.098;6.596;2022-11-11T09:05:31;24.70;;;17.23;;
52858;SDS011;38721;53.098;6.596;2022-11-11T09:08:00;25.05;;;16.55;;
52858;SDS011;38721;53.098;6.596;2022-11-11T09:10:27;22.58;;;16.17;;
52858;SDS011;38721;53.098;6.596;2022-11-11T09:12:57;26.35;;;16.45;;
52858;SDS011;38721;53.098;6.596;2022-11-11T09:15:23;22.88;;;16.13;;
52858;SDS011;38721;53.098;6.596;2022-11-11T09:17:48;24.30;;;15.63;;
52858;SDS011;38721;53.098;6.596;2022-11-11T09:20:14;22.02;;;15.27;;
52858;SDS011;38721;53.098;6.596;2022-11-11T09:22:41;25.80;;;16.35;;
52858;SDS011;38721;53.098;6.596;2022-11-11T09:25:12;25.25;;;16.02;;
52858;SDS011;38721;53.098;6.596;2022-11-11T09:27:39;25.40;;;16.67;;
52858;SDS011;38721;53.098;6.596;2022-11-11T09:30:04;24.40;;;15.60;;
52858;SDS011;38721;53.098;6.596;2022-11-11T09:32:31;23.02;;;15.27;;
52858;SDS011;38721;53.098;6.596;2022-11-11T09:34:57;22.90;;;15.02;;
52858;SDS011;38721;53.098;6.596;2022-11-11T09:37:27;20.40;;;14.82;;
52858;SDS011;38721;53.098;6.596;2022-11-11T09:39:52;23.38;;;14.32;;
52858;SDS011;38721;53.098;6.596;2022-11-11T09:42:36;21.33;;;15.13;;
52858;SDS011;38721;53.098;6.596;2022-11-11T09:45:13;27.52;;;15.52;;
52858;SDS011;38721;53.098;6.596;2022-11-11T09:51:06;26.90;;;15.27;;
52858;SDS011;38721;53.098;6.596;2022-11-11T09:53:41;23.92;;;15.57;;
52858;SDS011;38721;53.098;6.596;2022-11-11T09:56:14;20.65;;;14.57;;
52858;SDS011;38721;53.098;6.596;2022-11-11T09:58:50;25.17;;;16.30;;
52858;SDS011;38721;53.098;6.596;2022-11-11T10:01:26;22.98;;;14.75;;
52858;SDS011;38721;53.098;6.596;2022-11-11T10:07:13;20.52;;;14.55;;
52858;SDS011;38721;53.098;6.596;2022-11-11T10:09:52;21.77;;;15.23;;
52858;SDS011;38721;53.098;6.596;2022-11-11T10:12:25;22.90;;;14.70;;
52858;SDS011;38721;53.098;6.596;2022-11-11T10:14:58;23.58;;;14.75;;
52858;SDS011;38721;53.098;6.596;2022-11-11T10:20:28;22.92;;;15.27;;
52858;SDS011;38721;53.098;6.596;2022-11-11T10:23:00;21.60;;;14.38;;
52858;SDS011;38721;53.098;6.596;2022-11-11T10:25:32;20.17;;;14.20;;
52858;SDS011;38721;53.098;6.596;2022-11-11T10:27:59;20.85;;;14.18;;
52858;SDS011;38721;53.098;6.596;2022-11-11T10:30:30;23.13;;;15.27;;
52858;SDS011;38721;53.098;6.596;2022-11-11T10:33:01;19.88;;;14.88;;
52858;SDS011;38721;53.098;6.596;2022-11-11T10:35:29;22.30;;;14.02;;
52858;SDS011;38721;53.098;6.596;2022-11-11T10:40:39;24.15;;;14.98;;
52858;SDS011;38721;53.098;6.596;2022-11-11T10:43:44;20.92;;;14.60;;
52858;SDS011;38721;53.098;6.596;2022-11-11T10:46:11;23.35;;;14.55;;
52858;SDS011;38721;53.098;6.596;2022-11-11T10:48:59;21.98;;;14.77;;
52858;SDS011;38721;53.098;6.596;2022-11-11T10:52:12;21.50;;;14.07;;
52858;SDS011;38721;53.098;6.596;2022-11-11T10:54:41;21.55;;;13.77;;
52858;SDS011;38721;53.098;6.596;2022-11-11T10:57:33;20.27;;;14.70;;
52858;SDS011;38721;53.098;6.596;2022-11-11T11:00:04;22.20;;;14.63;;
52858;SDS011;38721;53.098;6.596;2022-11-11T11:02:47;21.38;;;14.20;;
52858;SDS011;38721;53.098;6.596;2022-11-11T11:08:11;23.63;;;14.88;;
52858;SDS011;38721;53.098;6.596;2022-11-11T11:11:30;20.95;;;14.23;;
52858;SDS011;38721;53.098;6.596;2022-11-11T11:13:54;20.13;;;14.07;;
52858;SDS011;38721;53.098;6.596;2022-11-11T11:16:25;20.35;;;13.07;;
52858;SDS011;38721;53.098;6.596;2022-11-11T11:21:48;18.45;;;13.75;;
52858;SDS011;38721;53.098;6.596;2022-11-11T11:27:07;20.30;;;13.77;;
52858;SDS011;38721;53.098;6.596;2022-11-11T11:29:35;20.88;;;13.93;;
52858;SDS011;38721;53.098;6.596;2022-11-11T11:32:14;20.98;;;13.80;;
52858;SDS011;38721;53.098;6.596;2022-11-11T11:37:17;17.08;;;12.32;;
52858;SDS011;38721;53.098;6.596;2022-11-11T11:39:45;17.60;;;12.35;;
52858;SDS011;38721;53.098;6.596;2022-11-11T11:42:27;18.15;;;13.20;;
52858;SDS011;38721;53.098;6.596;2022-11-11T11:53:27;19.10;;;13.23;;
52858;SDS011;38721;53.098;6.596;2022-11-11T11:58:38;16.92;;;11.70;;
52858;SDS011;38721;53.098;6.596;2022-11-11T12:01:56;18.33;;;12.18;;
52858;SDS011;38721;53.098;6.596;2022-11-11T12:10:05;18.30;;;11.70;;
52858;SDS011;38721;53.098;6.596;2022-11-11T12:15:16;16.15;;;11.40;;
52858;SDS011;38721;53.098;6.596;2022-11-11T12:21:03;18.27;;;10.77;;
52858;SDS011;38721;53.098;6.596;2022-11-11T12:36:48;16.98;;;12.55;;
52858;SDS011;38721;53.098;6.596;2022-11-11T12:42:09;17.17;;;11.60;;
52858;SDS011;38721;53.098;6.596;2022-11-11T12:45:02;20.77;;;11.70;;
52858;SDS011;38721;53.098;6.596;2022-11-11T12:50:46;18.00;;;12.70;;
52858;SDS011;38721;53.098;6.596;2022-11-11T12:53:17;18.05;;;12.05;;
52858;SDS011;38721;53.098;6.596;2022-11-11T12:56:11;20.88;;;12.93;;
52858;SDS011;38721;53.098;6.596;2022-11-11T12:58:53;18.10;;;12.85;;
52858;SDS011;38721;53.098;6.596;2022-11-11T13:07:16;21.15;;;13.65;;
52858;SDS011;38721;53.098;6.596;2022-11-11T13:15:33;21.23;;;12.98;;
52858;SDS011;38721;53.098;6.596;2022-11-11T13:17:59;21.60;;;12.52;;
52858;SDS011;38721;53.098;6.596;2022-11-11T13:20:34;21.90;;;12.45;;
52858;SDS011;38721;53.098;6.596;2022-11-11T13:23:10;19.33;;;12.63;;
52858;SDS011;38721;53.098;6.596;2022-11-11T13:25:42;18.27;;;13.07;;
52858;SDS011;38721;53.098;6.596;2022-11-11T13:28:16;18.33;;;12.88;;
52858;SDS011;38721;53.098;6.596;2022-11-11T13:31:19;19.70;;;13.60;;
52858;SDS011;38721;53.098;6.596;2022-11-11T13:34:01;20.17;;;12.18;;
52858;SDS011;38721;53.098;6.596;2022-11-11T13:36:30;21.27;;;13.18;;
52858;SDS011;38721;53.098;6.596;2022-11-11T13:39:06;21.17;;;14.57;;
52858;SDS011;38721;53.098;6.596;2022-11-11T13:41:48;19.70;;;13.23;;
52858;SDS011;38721;53.098;6.596;2022-11-11T13:44:18;18.30;;;12.77;;
52858;SDS011;38721;53.098;6.596;2022-11-11T13:46:47;18.15;;;12.57;;
52858;SDS011;38721;53.098;6.596;2022-11-11T13:49:24;20.70;;;13.70;;
52858;SDS011;38721;53.098;6.596;2022-11-11T13:52:05;18.40;;;12.63;;
52858;SDS011;38721;53.098;6.596;2022-11-11T13:54:49;18.80;;;13.02;;
52858;SDS011;38721;53.098;6.596;2022-11-11T13:57:23;17.50;;;13.15;;
52858;SDS011;38721;53.098;6.596;2022-11-11T14:07:47;18.67;;;12.60;;
52858;SDS011;38721;53.098;6.596;2022-11-11T14:12:52;19.98;;;12.88;;
52858;SDS011;38721;53.098;6.596;2022-11-11T14:18:07;18.65;;;12.63;;
52858;SDS011;38721;53.098;6.596;2022-11-11T14:20:38;19.00;;;12.65;;
52858;SDS011;38721;53.098;6.596;2022-11-11T14:23:23;18.55;;;12.20;;
52858;SDS011;38721;53.098;6.596;2022-11-11T14:28:36;20.23;;;12.95;;
52858;SDS011;38721;53.098;6.596;2022-11-11T14:33:50;16.60;;;12.27;;
52858;SDS011;38721;53.098;6.596;2022-11-11T14:36:27;16.63;;;12.13;;
52858;SDS011;38721;53.098;6.596;2022-11-11T14:42:01;16.65;;;12.48;;
52858;SDS011;38721;53.098;6.596;2022-11-11T14:57:40;19.98;;;13.10;;
52858;SDS011;38721;53.098;6.596;2022-11-11T15:17:17;19.33;;;13.77;;
52858;SDS011;38721;53.098;6.596;2022-11-11T15:22:54;18.23;;;12.82;;
52858;SDS011;38721;53.098;6.596;2022-11-11T15:25:46;18.92;;;13.43;;
52858;SDS011;38721;53.098;6.596;2022-11-11T15:28:34;21.10;;;14.07;;
52858;SDS011;38721;53.098;6.596;2022-11-11T15:31:23;19.48;;;13.15;;
52858;SDS011;38721;53.098;6.596;2022-11-11T15:36:38;19.48;;;13.40;;
52858;SDS011;38721;53.098;6.596;2022-11-11T15:39:12;20.13;;;13.65;;
52858;SDS011;38721;53.098;6.596;2022-11-11T15:41:42;17.70;;;13.57;;
52858;SDS011;38721;53.098;6.596;2022-11-11T15:44:33;22.33;;;13.65;;
52858;SDS011;38721;53.098;6.596;2022-11-11T15:46:59;19.90;;;13.60;;
52858;SDS011;38721;53.098;6.596;2022-11-11T15:49:42;20.05;;;13.05;;
52858;SDS011;38721;53.098;6.596;2022-11-11T15:54:47;19.63;;;13.80;;
52858;SDS011;38721;53.098;6.596;2022-11-11T15:57:21;22.40;;;14.32;;
52858;SDS011;38721;53.098;6.596;2022-11-11T15:59:51;20.35;;;13.85;;
52858;SDS011;38721;53.098;6.596;2022-11-11T16:02:22;24.98;;;15.23;;
52858;SDS011;38721;53.098;6.596;2022-11-11T16:04:58;20.90;;;15.10;;
52858;SDS011;38721;53.098;6.596;2022-11-11T16:07:41;20.15;;;14.15;;
52858;SDS011;38721;53.098;6.596;2022-11-11T16:10:08;21.77;;;15.65;;
52858;SDS011;38721;53.098;6.596;2022-11-11T16:12:42;21.10;;;14.60;;
52858;SDS011;38721;53.098;6.596;2022-11-11T16:15:08;23.80;;;15.98;;
52858;SDS011;38721;53.098;6.596;2022-11-11T16:17:39;23.52;;;16.08;;
52858;SDS011;38721;53.098;6.596;2022-11-11T16:20:13;24.92;;;15.95;;
52858;SDS011;38721;53.098;6.596;2022-11-11T16:22:40;23.20;;;15.77;;
52858;SDS011;38721;53.098;6.596;2022-11-11T16:25:18;27.83;;;16.42;;
52858;SDS011;38721;53.098;6.596;2022-11-11T16:27:45;22.77;;;16.35;;
52858;SDS011;38721;53.098;6.596;2022-11-11T16:32:57;25.40;;;16.63;;
52858;SDS011;38721;53.098;6.596;2022-11-11T16:35:31;23.73;;;16.73;;
52858;SDS011;38721;53.098;6.596;2022-11-11T16:38:03;22.48;;;15.93;;
52858;SDS011;38721;53.098;6.596;2022-11-11T16:43:10;20.73;;;15.23;;
52858;SDS011;38721;53.098;6.596;2022-11-11T16:48:35;22.75;;;14.98;;
52858;SDS011;38721;53.098;6.596;2022-11-11T16:51:12;21.17;;;15.88;;
52858;SDS011;38721;53.098;6.596;2022-11-11T16:54:08;25.15;;;17.30;;
52858;SDS011;38721;53.098;6.596;2022-11-11T16:56:50;25.80;;;17.45;;
52858;SDS011;38721;53.098;6.596;2022-11-11T16:59:21;26.17;;;17.42;;
52858;SDS011;38721;53.098;6.596;2022-11-11T17:01:47;26.95;;;17.35;;
52858;SDS011;38721;53.098;6.596;2022-11-11T17:04:13;25.38;;;16.45;;
52858;SDS011;38721;53.098;6.596;2022-11-11T17:06:56;22.98;;;16.92;;
52858;SDS011;38721;53.098;6.596;2022-11-11T17:09:30;24.83;;;17.38;;
52858;SDS011;38721;53.098;6.596;2022-11-11T17:12:00;25.67;;;17.80;;
52858;SDS011;38721;53.098;6.596;2022-11-11T17:14:26;27.38;;;18.30;;
52858;SDS011;38721;53.098;6.596;2022-11-11T17:16:53;23.02;;;17.00;;
52858;SDS011;38721;53.098;6.596;2022-11-11T17:19:18;27.35;;;17.75;;
52858;SDS011;38721;53.098;6.596;2022-11-11T17:21:45;26.55;;;17.20;;
52858;SDS011;38721;53.098;6.596;2022-11-11T17:24:12;27.67;;;17.50;;
52858;SDS011;38721;53.098;6.596;2022-11-11T17:26:38;25.13;;;17.58;;
52858;SDS011;38721;53.098;6.596;2022-11-11T17:29:06;25.02;;;16.85;;
52858;SDS011;38721;53.098;6.596;2022-11-11T17:31:34;23.17;;;17.65;;
52858;SDS011;38721;53.098;6.596;2022-11-11T17:34:19;25.75;;;17.27;;